sensor_id;sensor_type;location;lat;lon;timestamp;temperature;humidity
4354;DHT22;11018;51.258;6.806;2022-07-29T00:00:14;20.30;17.90
4354;DHT22;11018;51.258;6.806;2022-07-29T00:02:40;20.30;17.90
4354;DHT22;11018;51.258;6.806;2022-07-29T00:05:07;20.30;17.80
4354;DHT22;11018;51.258;6.806;2022-07-29T00:07:33;20.20;17.90
4354;DHT22;11018;51.258;6.806;2022-07-29T00:09:59;20.20;17.90
4354;DHT22;11018;51.258;6.806;2022-07-29T00:12:25;20.20;17.80
4354;DHT22;11018;51.258;6.806;2022-07-29T00:14:51;20.20;17.90
4354;DHT22;11018;51.258;6.806;2022-07-29T00:17:17;20.10;18.30
4354;DHT22;11018;51.258;6.806;2022-07-29T00:19:42;20.10;18.10
4354;DHT22;11018;51.258;6.806;2022-07-29T00:22:08;20.10;18.20
4354;DHT22;11018;51.258;6.806;2022-07-29T00:24:33;20.10;18.20
4354;DHT22;11018;51.258;6.806;2022-07-29T00:26:59;20.20;18.00
4354;DHT22;11018;51.258;6.806;2022-07-29T00:29:24;20.20;18.10
4354;DHT22;11018;51.258;6.806;2022-07-29T00:31:50;20.10;18.30
4354;DHT22;11018;51.258;6.806;2022-07-29T00:34:16;20.00;18.60
4354;DHT22;11018;51.258;6.806;2022-07-29T00:37:00;20.00;18.40
4354;DHT22;11018;51.258;6.806;2022-07-29T00:39:26;20.00;18.40
4354;DHT22;11018;51.258;6.806;2022-07-29T00:41:51;20.00;18.70
4354;DHT22;11018;51.258;6.806;2022-07-29T00:44:17;20.00;18.50
4354;DHT22;11018;51.258;6.806;2022-07-29T00:46:42;19.80;19.00
4354;DHT22;11018;51.258;6.806;2022-07-29T00:49:08;19.70;19.20
4354;DHT22;11018;51.258;6.806;2022-07-29T00:51:37;19.70;19.30
4354;DHT22;11018;51.258;6.806;2022-07-29T00:54:04;19.80;19.00
4354;DHT22;11018;51.258;6.806;2022-07-29T00:56:30;19.80;19.10
4354;DHT22;11018;51.258;6.806;2022-07-29T00:58:57;19.80;19.30
4354;DHT22;11018;51.258;6.806;2022-07-29T01:01:23;19.60;19.80
4354;DHT22;11018;51.258;6.806;2022-07-29T01:03:49;19.50;20.00
4354;DHT22;11018;51.258;6.806;2022-07-29T01:06:16;19.50;20.00
4354;DHT22;11018;51.258;6.806;2022-07-29T01:08:43;19.40;20.20
4354;DHT22;11018;51.258;6.806;2022-07-29T01:11:09;19.30;20.70
4354;DHT22;11018;51.258;6.806;2022-07-29T01:13:36;19.50;20.60
4354;DHT22;11018;51.258;6.806;2022-07-29T01:16:17;19.70;19.90
4354;DHT22;11018;51.258;6.806;2022-07-29T01:18:48;19.80;19.40
4354;DHT22;11018;51.258;6.806;2022-07-29T01:21:49;19.90;19.30
4354;DHT22;11018;51.258;6.806;2022-07-29T01:29:45;19.80;19.40
4354;DHT22;11018;51.258;6.806;2022-07-29T01:32:17;19.70;19.50
4354;DHT22;11018;51.258;6.806;2022-07-29T01:37:38;19.70;19.90
4354;DHT22;11018;51.258;6.806;2022-07-29T01:40:05;19.60;20.00
4354;DHT22;11018;51.258;6.806;2022-07-29T01:42:44;19.60;20.00
4354;DHT22;11018;51.258;6.806;2022-07-29T01:48:18;19.50;20.20
4354;DHT22;11018;51.258;6.806;2022-07-29T01:53:42;19.70;19.80
4354;DHT22;11018;51.258;6.806;2022-07-29T01:56:10;19.70;19.60
4354;DHT22;11018;51.258;6.806;2022-07-29T01:58:39;19.80;19.50
4354;DHT22;11018;51.258;6.806;2022-07-29T02:01:06;19.80;19.60
4354;DHT22;11018;51.258;6.806;2022-07-29T02:03:34;19.80;19.50
4354;DHT22;11018;51.258;6.806;2022-07-29T02:06:02;19.70;19.60
4354;DHT22;11018;51.258;6.806;2022-07-29T02:08:30;19.70;20.00
4354;DHT22;11018;51.258;6.806;2022-07-29T02:10:57;19.70;19.80
4354;DHT22;11018;51.258;6.806;2022-07-29T02:13:26;19.80;19.40
4354;DHT22;11018;51.258;6.806;2022-07-29T02:15:53;19.80;19.20
4354;DHT22;11018;51.258;6.806;2022-07-29T02:18:23;19.70;20.00
4354;DHT22;11018;51.258;6.806;2022-07-29T02:20:52;19.50;20.00
4354;DHT22;11018;51.258;6.806;2022-07-29T02:23:21;19.70;20.00
4354;DHT22;11018;51.258;6.806;2022-07-29T02:25:53;19.80;19.70
4354;DHT22;11018;51.258;6.806;2022-07-29T02:28:22;19.70;19.90
4354;DHT22;11018;51.258;6.806;2022-07-29T02:30:50;19.50;20.10
4354;DHT22;11018;51.258;6.806;2022-07-29T02:33:18;19.50;20.40
4354;DHT22;11018;51.258;6.806;2022-07-29T02:35:46;19.60;20.20
4354;DHT22;11018;51.258;6.806;2022-07-29T02:38:14;19.70;20.00
4354;DHT22;11018;51.258;6.806;2022-07-29T02:41:01;19.60;20.00
4354;DHT22;11018;51.258;6.806;2022-07-29T02:43:29;19.50;20.30
4354;DHT22;11018;51.258;6.806;2022-07-29T02:45:56;19.40;20.40
4354;DHT22;11018;51.258;6.806;2022-07-29T02:48:31;19.40;20.50
4354;DHT22;11018;51.258;6.806;2022-07-29T02:51:13;19.30;20.70
4354;DHT22;11018;51.258;6.806;2022-07-29T02:53:44;19.30;20.70
4354;DHT22;11018;51.258;6.806;2022-07-29T02:56:16;19.30;20.50
4354;DHT22;11018;51.258;6.806;2022-07-29T02:58:47;19.30;20.50
4354;DHT22;11018;51.258;6.806;2022-07-29T03:01:21;19.30;20.00
4354;DHT22;11018;51.258;6.806;2022-07-29T03:03:49;19.30;20.00
4354;DHT22;11018;51.258;6.806;2022-07-29T03:06:17;19.40;20.00
4354;DHT22;11018;51.258;6.806;2022-07-29T03:08:44;19.40;20.10
4354;DHT22;11018;51.258;6.806;2022-07-29T03:11:11;19.30;20.40
4354;DHT22;11018;51.258;6.806;2022-07-29T03:13:37;19.30;20.70
4354;DHT22;11018;51.258;6.806;2022-07-29T03:16:04;19.30;20.80
4354;DHT22;11018;51.258;6.806;2022-07-29T03:18:31;19.20;20.90
4354;DHT22;11018;51.258;6.806;2022-07-29T03:20:57;19.20;20.70
4354;DHT22;11018;51.258;6.806;2022-07-29T03:23:23;19.20;20.70
4354;DHT22;11018;51.258;6.806;2022-07-29T03:25:51;19.20;20.80
4354;DHT22;11018;51.258;6.806;2022-07-29T03:28:17;19.10;20.80
4354;DHT22;11018;51.258;6.806;2022-07-29T03:30:43;19.10;21.10
4354;DHT22;11018;51.258;6.806;2022-07-29T03:33:09;19.00;21.10
4354;DHT22;11018;51.258;6.806;2022-07-29T03:35:35;19.00;21.70
4354;DHT22;11018;51.258;6.806;2022-07-29T03:38:00;19.00;23.20
4354;DHT22;11018;51.258;6.806;2022-07-29T03:41:15;18.70;26.50
4354;DHT22;11018;51.258;6.806;2022-07-29T03:43:17;18.40;27.30
4354;DHT22;11018;51.258;6.806;2022-07-29T03:45:47;18.20;31.70
4354;DHT22;11018;51.258;6.806;2022-07-29T03:48:16;17.60;39.40
4354;DHT22;11018;51.258;6.806;2022-07-29T03:50:43;16.50;80.70
4354;DHT22;11018;51.258;6.806;2022-07-29T03:53:08;15.50;99.90
4354;DHT22;11018;51.258;6.806;2022-07-29T03:55:40;15.10;99.90
4354;DHT22;11018;51.258;6.806;2022-07-29T03:58:06;15.00;99.90
4354;DHT22;11018;51.258;6.806;2022-07-29T04:00:34;14.80;99.90
4354;DHT22;11018;51.258;6.806;2022-07-29T04:03:01;14.80;99.90
4354;DHT22;11018;51.258;6.806;2022-07-29T04:05:27;14.70;99.90
4354;DHT22;11018;51.258;6.806;2022-07-29T04:07:52;14.80;99.90
4354;DHT22;11018;51.258;6.806;2022-07-29T04:10:18;14.90;99.90
4354;DHT22;11018;51.258;6.806;2022-07-29T04:12:44;14.90;99.90
4354;DHT22;11018;51.258;6.806;2022-07-29T04:15:10;15.10;97.20
4354;DHT22;11018;51.258;6.806;2022-07-29T04:17:36;15.00;99.90
4354;DHT22;11018;51.258;6.806;2022-07-29T04:20:02;15.00;99.90
4354;DHT22;11018;51.258;6.806;2022-07-29T04:22:28;15.00;99.90
4354;DHT22;11018;51.258;6.806;2022-07-29T04:24:54;15.00;99.90
4354;DHT22;11018;51.258;6.806;2022-07-29T04:27:19;15.10;97.50
4354;DHT22;11018;51.258;6.806;2022-07-29T04:29:45;15.00;99.90
4354;DHT22;11018;51.258;6.806;2022-07-29T04:32:10;15.00;99.90
4354;DHT22;11018;51.258;6.806;2022-07-29T04:34:36;15.00;99.90
4354;DHT22;11018;51.258;6.806;2022-07-29T04:37:01;15.10;99.90
4354;DHT22;11018;51.258;6.806;2022-07-29T04:39:27;15.30;92.60
4354;DHT22;11018;51.258;6.806;2022-07-29T04:41:53;15.50;74.80
4354;DHT22;11018;51.258;6.806;2022-07-29T04:44:19;15.30;87.80
4354;DHT22;11018;51.258;6.806;2022-07-29T04:46:44;15.20;99.90
4354;DHT22;11018;51.258;6.806;2022-07-29T04:49:10;15.30;96.20
4354;DHT22;11018;51.258;6.806;2022-07-29T04:51:35;15.60;93.90
4354;DHT22;11018;51.258;6.806;2022-07-29T04:54:01;15.70;93.50
4354;DHT22;11018;51.258;6.806;2022-07-29T04:56:27;15.90;76.10
4354;DHT22;11018;51.258;6.806;2022-07-29T04:58:52;16.20;70.70
4354;DHT22;11018;51.258;6.806;2022-07-29T05:01:18;16.30;71.50
4354;DHT22;11018;51.258;6.806;2022-07-29T05:03:44;16.30;72.70
4354;DHT22;11018;51.258;6.806;2022-07-29T05:06:10;16.30;76.60
4354;DHT22;11018;51.258;6.806;2022-07-29T05:08:36;16.30;76.60
4354;DHT22;11018;51.258;6.806;2022-07-29T05:11:02;16.30;77.70
4354;DHT22;11018;51.258;6.806;2022-07-29T05:13:28;16.30;78.60
4354;DHT22;11018;51.258;6.806;2022-07-29T05:15:54;16.20;79.20
4354;DHT22;11018;51.258;6.806;2022-07-29T05:18:19;16.20;81.40
4354;DHT22;11018;51.258;6.806;2022-07-29T05:20:45;16.20;83.90
4354;DHT22;11018;51.258;6.806;2022-07-29T05:23:11;16.00;90.40
4354;DHT22;11018;51.258;6.806;2022-07-29T05:25:38;15.80;97.70
4354;DHT22;11018;51.258;6.806;2022-07-29T05:28:04;15.80;99.90
4354;DHT22;11018;51.258;6.806;2022-07-29T05:30:29;15.80;99.90
4354;DHT22;11018;51.258;6.806;2022-07-29T05:32:55;15.90;99.40
4354;DHT22;11018;51.258;6.806;2022-07-29T05:35:21;16.10;88.60
4354;DHT22;11018;51.258;6.806;2022-07-29T05:37:46;16.20;87.60
4354;DHT22;11018;51.258;6.806;2022-07-29T05:40:12;16.20;84.10
4354;DHT22;11018;51.258;6.806;2022-07-29T05:42:37;16.30;79.90
4354;DHT22;11018;51.258;6.806;2022-07-29T05:45:03;16.30;78.90
4354;DHT22;11018;51.258;6.806;2022-07-29T05:47:30;16.30;82.00
4354;DHT22;11018;51.258;6.806;2022-07-29T05:49:56;16.40;80.80
4354;DHT22;11018;51.258;6.806;2022-07-29T05:52:21;16.50;78.20
4354;DHT22;11018;51.258;6.806;2022-07-29T05:54:47;16.60;79.40
4354;DHT22;11018;51.258;6.806;2022-07-29T05:57:23;16.80;76.10
4354;DHT22;11018;51.258;6.806;2022-07-29T05:59:49;17.00;75.00
4354;DHT22;11018;51.258;6.806;2022-07-29T06:02:16;17.30;73.60
4354;DHT22;11018;51.258;6.806;2022-07-29T06:04:42;17.50;75.50
4354;DHT22;11018;51.258;6.806;2022-07-29T06:07:08;17.60;64.00
4354;DHT22;11018;51.258;6.806;2022-07-29T06:09:34;17.70;70.00
4354;DHT22;11018;51.258;6.806;2022-07-29T06:12:00;17.70;69.60
4354;DHT22;11018;51.258;6.806;2022-07-29T06:14:26;17.90;63.60
4354;DHT22;11018;51.258;6.806;2022-07-29T06:16:52;17.80;63.80
4354;DHT22;11018;51.258;6.806;2022-07-29T06:19:18;18.00;62.40
4354;DHT22;11018;51.258;6.806;2022-07-29T06:21:45;18.00;62.60
4354;DHT22;11018;51.258;6.806;2022-07-29T06:24:11;18.00;63.30
4354;DHT22;11018;51.258;6.806;2022-07-29T06:26:38;18.00;69.50
4354;DHT22;11018;51.258;6.806;2022-07-29T06:29:04;18.00;70.60
4354;DHT22;11018;51.258;6.806;2022-07-29T06:31:30;18.00;75.90
4354;DHT22;11018;51.258;6.806;2022-07-29T06:33:55;17.90;73.00
4354;DHT22;11018;51.258;6.806;2022-07-29T06:36:21;17.70;74.30
4354;DHT22;11018;51.258;6.806;2022-07-29T06:38:46;17.60;75.50
4354;DHT22;11018;51.258;6.806;2022-07-29T06:41:12;17.60;75.50
4354;DHT22;11018;51.258;6.806;2022-07-29T06:43:44;17.50;78.60
4354;DHT22;11018;51.258;6.806;2022-07-29T06:46:12;17.50;82.40
4354;DHT22;11018;51.258;6.806;2022-07-29T06:48:39;17.40;81.20
4354;DHT22;11018;51.258;6.806;2022-07-29T06:51:06;17.40;80.90
4354;DHT22;11018;51.258;6.806;2022-07-29T06:53:32;17.40;80.40
4354;DHT22;11018;51.258;6.806;2022-07-29T06:55:59;17.50;81.70
4354;DHT22;11018;51.258;6.806;2022-07-29T06:58:26;17.60;72.00
4354;DHT22;11018;51.258;6.806;2022-07-29T07:00:51;17.70;68.60
4354;DHT22;11018;51.258;6.806;2022-07-29T07:03:17;17.80;69.40
4354;DHT22;11018;51.258;6.806;2022-07-29T07:05:44;17.90;70.10
4354;DHT22;11018;51.258;6.806;2022-07-29T07:08:10;18.00;67.40
4354;DHT22;11018;51.258;6.806;2022-07-29T07:10:36;18.60;64.30
4354;DHT22;11018;51.258;6.806;2022-07-29T07:13:02;18.50;70.10
4354;DHT22;11018;51.258;6.806;2022-07-29T07:15:28;18.60;69.00
4354;DHT22;11018;51.258;6.806;2022-07-29T07:17:54;18.80;69.10
4354;DHT22;11018;51.258;6.806;2022-07-29T07:20:20;19.10;60.50
4354;DHT22;11018;51.258;6.806;2022-07-29T07:22:45;19.20;55.40
4354;DHT22;11018;51.258;6.806;2022-07-29T07:25:11;19.10;57.50
4354;DHT22;11018;51.258;6.806;2022-07-29T07:27:37;18.90;60.70
4354;DHT22;11018;51.258;6.806;2022-07-29T07:30:04;18.80;65.60
4354;DHT22;11018;51.258;6.806;2022-07-29T07:32:34;18.70;58.90
4354;DHT22;11018;51.258;6.806;2022-07-29T07:35:00;18.50;63.00
4354;DHT22;11018;51.258;6.806;2022-07-29T07:37:26;18.50;66.90
4354;DHT22;11018;51.258;6.806;2022-07-29T07:39:52;18.50;62.20
4354;DHT22;11018;51.258;6.806;2022-07-29T07:42:18;18.40;63.70
4354;DHT22;11018;51.258;6.806;2022-07-29T07:44:44;18.30;70.70
4354;DHT22;11018;51.258;6.806;2022-07-29T07:47:11;18.20;73.50
4354;DHT22;11018;51.258;6.806;2022-07-29T07:49:37;18.30;76.40
4354;DHT22;11018;51.258;6.806;2022-07-29T07:52:02;18.50;72.30
4354;DHT22;11018;51.258;6.806;2022-07-29T07:54:28;18.80;66.90
4354;DHT22;11018;51.258;6.806;2022-07-29T07:56:54;19.00;61.30
4354;DHT22;11018;51.258;6.806;2022-07-29T07:59:19;19.00;61.00
4354;DHT22;11018;51.258;6.806;2022-07-29T08:01:45;18.90;57.70
4354;DHT22;11018;51.258;6.806;2022-07-29T08:04:10;18.70;57.90
4354;DHT22;11018;51.258;6.806;2022-07-29T08:06:36;18.60;58.40
4354;DHT22;11018;51.258;6.806;2022-07-29T08:09:03;18.60;60.30
4354;DHT22;11018;51.258;6.806;2022-07-29T08:11:29;18.30;57.90
4354;DHT22;11018;51.258;6.806;2022-07-29T08:13:55;18.30;61.10
4354;DHT22;11018;51.258;6.806;2022-07-29T08:16:21;18.30;62.50
4354;DHT22;11018;51.258;6.806;2022-07-29T08:18:47;18.30;64.90
4354;DHT22;11018;51.258;6.806;2022-07-29T08:21:14;18.40;61.30
4354;DHT22;11018;51.258;6.806;2022-07-29T08:23:40;18.40;61.60
4354;DHT22;11018;51.258;6.806;2022-07-29T08:26:11;18.40;63.80
4354;DHT22;11018;51.258;6.806;2022-07-29T08:28:38;18.40;64.80
4354;DHT22;11018;51.258;6.806;2022-07-29T08:31:04;18.40;67.70
4354;DHT22;11018;51.258;6.806;2022-07-29T08:33:31;18.30;67.30
4354;DHT22;11018;51.258;6.806;2022-07-29T08:35:59;18.10;71.00
4354;DHT22;11018;51.258;6.806;2022-07-29T08:38:25;18.10;74.30
4354;DHT22;11018;51.258;6.806;2022-07-29T08:40:52;18.00;75.60
4354;DHT22;11018;51.258;6.806;2022-07-29T08:43:18;18.00;80.00
4354;DHT22;11018;51.258;6.806;2022-07-29T08:45:49;18.10;75.90
4354;DHT22;11018;51.258;6.806;2022-07-29T08:48:19;18.10;78.10
4354;DHT22;11018;51.258;6.806;2022-07-29T08:50:46;18.00;80.20
4354;DHT22;11018;51.258;6.806;2022-07-29T08:53:15;18.20;77.50
4354;DHT22;11018;51.258;6.806;2022-07-29T08:55:48;18.50;74.40
4354;DHT22;11018;51.258;6.806;2022-07-29T08:58:15;18.60;73.00
4354;DHT22;11018;51.258;6.806;2022-07-29T09:00:44;18.60;71.70
4354;DHT22;11018;51.258;6.806;2022-07-29T09:03:12;18.60;74.10
4354;DHT22;11018;51.258;6.806;2022-07-29T09:05:41;18.50;72.20
4354;DHT22;11018;51.258;6.806;2022-07-29T09:08:08;18.50;71.20
4354;DHT22;11018;51.258;6.806;2022-07-29T09:10:37;18.40;70.40
4354;DHT22;11018;51.258;6.806;2022-07-29T09:13:03;18.50;72.70
4354;DHT22;11018;51.258;6.806;2022-07-29T09:15:28;18.60;70.00
4354;DHT22;11018;51.258;6.806;2022-07-29T09:17:54;18.70;67.00
4354;DHT22;11018;51.258;6.806;2022-07-29T09:20:21;18.80;63.80
4354;DHT22;11018;51.258;6.806;2022-07-29T09:22:53;18.90;61.40
4354;DHT22;11018;51.258;6.806;2022-07-29T09:25:35;19.10;59.20
4354;DHT22;11018;51.258;6.806;2022-07-29T09:28:12;19.40;58.00
4354;DHT22;11018;51.258;6.806;2022-07-29T09:30:55;19.70;58.50
4354;DHT22;11018;51.258;6.806;2022-07-29T09:33:22;20.20;47.80
4354;DHT22;11018;51.258;6.806;2022-07-29T09:36:05;20.30;45.90
4354;DHT22;11018;51.258;6.806;2022-07-29T09:38:31;20.60;41.60
4354;DHT22;11018;51.258;6.806;2022-07-29T09:40:59;20.60;44.40
4354;DHT22;11018;51.258;6.806;2022-07-29T09:43:24;20.90;42.80
4354;DHT22;11018;51.258;6.806;2022-07-29T09:45:50;21.20;41.50
4354;DHT22;11018;51.258;6.806;2022-07-29T09:48:18;21.10;38.50
4354;DHT22;11018;51.258;6.806;2022-07-29T09:50:45;21.10;42.00
4354;DHT22;11018;51.258;6.806;2022-07-29T09:53:12;21.10;39.70
4354;DHT22;11018;51.258;6.806;2022-07-29T09:55:54;21.20;40.40
4354;DHT22;11018;51.258;6.806;2022-07-29T09:58:21;21.20;41.50
4354;DHT22;11018;51.258;6.806;2022-07-29T10:00:49;21.30;40.90
4354;DHT22;11018;51.258;6.806;2022-07-29T10:03:16;21.30;40.40
4354;DHT22;11018;51.258;6.806;2022-07-29T10:05:43;21.20;38.40
4354;DHT22;11018;51.258;6.806;2022-07-29T10:08:10;21.00;39.80
4354;DHT22;11018;51.258;6.806;2022-07-29T10:10:39;21.00;41.80
4354;DHT22;11018;51.258;6.806;2022-07-29T10:13:07;21.10;42.10
4354;DHT22;11018;51.258;6.806;2022-07-29T10:15:36;21.70;37.60
4354;DHT22;11018;51.258;6.806;2022-07-29T10:18:06;22.00;35.60
4354;DHT22;11018;51.258;6.806;2022-07-29T10:20:32;22.10;33.70
4354;DHT22;11018;51.258;6.806;2022-07-29T10:22:58;22.20;32.90
4354;DHT22;11018;51.258;6.806;2022-07-29T10:25:24;22.40;31.60
4354;DHT22;11018;51.258;6.806;2022-07-29T10:27:51;22.70;32.40
4354;DHT22;11018;51.258;6.806;2022-07-29T10:30:18;22.90;30.00
4354;DHT22;11018;51.258;6.806;2022-07-29T10:33:14;23.20;30.20
4354;DHT22;11018;51.258;6.806;2022-07-29T10:38:45;23.10;29.40
4354;DHT22;11018;51.258;6.806;2022-07-29T10:42:10;23.20;29.40
4354;DHT22;11018;51.258;6.806;2022-07-29T10:44:40;23.40;28.30
4354;DHT22;11018;51.258;6.806;2022-07-29T10:47:06;23.20;27.60
4354;DHT22;11018;51.258;6.806;2022-07-29T10:49:32;23.00;26.40
4354;DHT22;11018;51.258;6.806;2022-07-29T10:52:07;23.10;27.10
4354;DHT22;11018;51.258;6.806;2022-07-29T10:57:14;22.30;26.80
4354;DHT22;11018;51.258;6.806;2022-07-29T10:59:41;22.10;29.30
4354;DHT22;11018;51.258;6.806;2022-07-29T11:04:58;21.70;28.20
4354;DHT22;11018;51.258;6.806;2022-07-29T11:07:25;21.80;25.90
4354;DHT22;11018;51.258;6.806;2022-07-29T11:15:05;22.00;25.00
4354;DHT22;11018;51.258;6.806;2022-07-29T11:20:41;22.50;24.70
4354;DHT22;11018;51.258;6.806;2022-07-29T11:28:42;22.80;19.50
4354;DHT22;11018;51.258;6.806;2022-07-29T11:31:16;23.00;19.00
4354;DHT22;11018;51.258;6.806;2022-07-29T11:33:41;23.40;18.60
4354;DHT22;11018;51.258;6.806;2022-07-29T11:36:12;24.00;15.90
4354;DHT22;11018;51.258;6.806;2022-07-29T11:38:38;24.50;15.40
4354;DHT22;11018;51.258;6.806;2022-07-29T11:41:23;24.80;14.40
4354;DHT22;11018;51.258;6.806;2022-07-29T11:43:51;24.90;13.70
4354;DHT22;11018;51.258;6.806;2022-07-29T11:46:48;25.10;13.70
4354;DHT22;11018;51.258;6.806;2022-07-29T11:49:25;25.00;14.50
4354;DHT22;11018;51.258;6.806;2022-07-29T11:51:56;24.90;14.00
4354;DHT22;11018;51.258;6.806;2022-07-29T11:54:31;24.80;14.20
4354;DHT22;11018;51.258;6.806;2022-07-29T11:56:58;24.70;16.00
4354;DHT22;11018;51.258;6.806;2022-07-29T11:59:24;24.80;14.50
4354;DHT22;11018;51.258;6.806;2022-07-29T12:01:54;24.60;14.90
4354;DHT22;11018;51.258;6.806;2022-07-29T12:04:20;24.80;15.30
4354;DHT22;11018;51.258;6.806;2022-07-29T12:06:53;24.70;14.90
4354;DHT22;11018;51.258;6.806;2022-07-29T12:09:20;25.00;15.50
4354;DHT22;11018;51.258;6.806;2022-07-29T12:11:46;25.00;14.30
4354;DHT22;11018;51.258;6.806;2022-07-29T12:14:29;25.00;15.10
4354;DHT22;11018;51.258;6.806;2022-07-29T12:16:56;24.90;16.10
4354;DHT22;11018;51.258;6.806;2022-07-29T12:19:21;24.80;16.00
4354;DHT22;11018;51.258;6.806;2022-07-29T12:21:50;24.70;16.50
4354;DHT22;11018;51.258;6.806;2022-07-29T12:24:16;24.70;16.20
4354;DHT22;11018;51.258;6.806;2022-07-29T12:26:53;24.60;16.60
4354;DHT22;11018;51.258;6.806;2022-07-29T12:29:19;24.60;16.80
4354;DHT22;11018;51.258;6.806;2022-07-29T12:31:45;24.50;17.30
4354;DHT22;11018;51.258;6.806;2022-07-29T12:34:15;24.50;17.30
4354;DHT22;11018;51.258;6.806;2022-07-29T12:36:42;24.50;17.20
4354;DHT22;11018;51.258;6.806;2022-07-29T12:39:09;24.50;17.60
4354;DHT22;11018;51.258;6.806;2022-07-29T12:41:35;24.40;17.40
4354;DHT22;11018;51.258;6.806;2022-07-29T12:44:01;24.10;17.50
4354;DHT22;11018;51.258;6.806;2022-07-29T12:46:27;24.10;18.90
4354;DHT22;11018;51.258;6.806;2022-07-29T12:48:54;24.80;17.30
4354;DHT22;11018;51.258;6.806;2022-07-29T12:51:31;25.00;17.10
4354;DHT22;11018;51.258;6.806;2022-07-29T12:56:33;24.80;17.50
4354;DHT22;11018;51.258;6.806;2022-07-29T12:58:59;25.20;15.90
4354;DHT22;11018;51.258;6.806;2022-07-29T13:01:25;25.20;15.30
4354;DHT22;11018;51.258;6.806;2022-07-29T13:03:59;25.20;15.30
4354;DHT22;11018;51.258;6.806;2022-07-29T13:09:13;24.30;16.10
4354;DHT22;11018;51.258;6.806;2022-07-29T13:11:41;24.30;16.40
4354;DHT22;11018;51.258;6.806;2022-07-29T13:14:11;24.30;16.70
4354;DHT22;11018;51.258;6.806;2022-07-29T13:17:01;24.50;16.80
4354;DHT22;11018;51.258;6.806;2022-07-29T13:19:42;24.60;15.40
4354;DHT22;11018;51.258;6.806;2022-07-29T13:22:19;24.80;15.10
4354;DHT22;11018;51.258;6.806;2022-07-29T13:24:53;24.90;15.90
4354;DHT22;11018;51.258;6.806;2022-07-29T13:27:20;25.00;15.40
4354;DHT22;11018;51.258;6.806;2022-07-29T13:29:46;25.30;14.60
4354;DHT22;11018;51.258;6.806;2022-07-29T13:32:12;25.40;14.10
4354;DHT22;11018;51.258;6.806;2022-07-29T13:34:38;26.20;13.00
4354;DHT22;11018;51.258;6.806;2022-07-29T13:37:04;26.20;12.80
4354;DHT22;11018;51.258;6.806;2022-07-29T13:39:30;26.60;12.30
4354;DHT22;11018;51.258;6.806;2022-07-29T13:41:56;26.70;11.60
4354;DHT22;11018;51.258;6.806;2022-07-29T13:44:21;26.90;11.70
4354;DHT22;11018;51.258;6.806;2022-07-29T13:46:47;26.60;12.00
4354;DHT22;11018;51.258;6.806;2022-07-29T13:49:12;26.50;12.40
4354;DHT22;11018;51.258;6.806;2022-07-29T13:51:38;26.40;12.30
4354;DHT22;11018;51.258;6.806;2022-07-29T13:54:04;26.50;12.90
4354;DHT22;11018;51.258;6.806;2022-07-29T13:56:30;26.40;12.20
4354;DHT22;11018;51.258;6.806;2022-07-29T13:58:55;26.20;12.60
4354;DHT22;11018;51.258;6.806;2022-07-29T14:01:21;26.60;12.40
4354;DHT22;11018;51.258;6.806;2022-07-29T14:03:47;27.00;12.10
4354;DHT22;11018;51.258;6.806;2022-07-29T14:06:12;27.50;10.90
4354;DHT22;11018;51.258;6.806;2022-07-29T14:08:38;28.00;10.20
4354;DHT22;11018;51.258;6.806;2022-07-29T14:11:04;27.30;10.00
4354;DHT22;11018;51.258;6.806;2022-07-29T14:13:29;27.80;9.40
4354;DHT22;11018;51.258;6.806;2022-07-29T14:15:55;28.10;9.60
4354;DHT22;11018;51.258;6.806;2022-07-29T14:18:20;28.50;8.60
4354;DHT22;11018;51.258;6.806;2022-07-29T14:20:46;27.70;9.30
4354;DHT22;11018;51.258;6.806;2022-07-29T14:23:12;27.60;9.40
4354;DHT22;11018;51.258;6.806;2022-07-29T14:25:37;27.40;9.90
4354;DHT22;11018;51.258;6.806;2022-07-29T14:28:03;27.80;10.20
4354;DHT22;11018;51.258;6.806;2022-07-29T14:30:28;27.30;9.70
4354;DHT22;11018;51.258;6.806;2022-07-29T14:32:54;27.00;10.80
4354;DHT22;11018;51.258;6.806;2022-07-29T14:35:19;27.50;9.90
4354;DHT22;11018;51.258;6.806;2022-07-29T14:37:45;27.00;11.20
4354;DHT22;11018;51.258;6.806;2022-07-29T14:40:11;27.20;10.20
4354;DHT22;11018;51.258;6.806;2022-07-29T14:42:37;27.20;10.80
4354;DHT22;11018;51.258;6.806;2022-07-29T14:45:05;27.10;10.40
4354;DHT22;11018;51.258;6.806;2022-07-29T14:47:30;27.00;10.40
4354;DHT22;11018;51.258;6.806;2022-07-29T14:49:56;27.10;10.50
4354;DHT22;11018;51.258;6.806;2022-07-29T14:52:22;27.40;10.40
4354;DHT22;11018;51.258;6.806;2022-07-29T14:54:47;27.70;9.70
4354;DHT22;11018;51.258;6.806;2022-07-29T14:57:13;27.80;9.00
4354;DHT22;11018;51.258;6.806;2022-07-29T14:59:38;27.80;8.40
4354;DHT22;11018;51.258;6.806;2022-07-29T15:02:04;27.50;8.40
4354;DHT22;11018;51.258;6.806;2022-07-29T15:04:29;27.50;8.60
4354;DHT22;11018;51.258;6.806;2022-07-29T15:06:55;27.60;8.00
4354;DHT22;11018;51.258;6.806;2022-07-29T15:09:21;27.50;8.50
4354;DHT22;11018;51.258;6.806;2022-07-29T15:11:46;27.40;8.60
4354;DHT22;11018;51.258;6.806;2022-07-29T15:14:12;28.00;8.10
4354;DHT22;11018;51.258;6.806;2022-07-29T15:16:38;28.60;7.00
4354;DHT22;11018;51.258;6.806;2022-07-29T15:19:05;28.70;6.70
4354;DHT22;11018;51.258;6.806;2022-07-29T15:21:30;28.70;7.00
4354;DHT22;11018;51.258;6.806;2022-07-29T15:23:56;29.30;6.30
4354;DHT22;11018;51.258;6.806;2022-07-29T15:26:21;29.10;6.30
4354;DHT22;11018;51.258;6.806;2022-07-29T15:28:47;28.90;6.30
4354;DHT22;11018;51.258;6.806;2022-07-29T15:31:13;29.70;4.60
4354;DHT22;11018;51.258;6.806;2022-07-29T15:33:39;30.20;3.40
4354;DHT22;11018;51.258;6.806;2022-07-29T15:36:05;30.40;3.50
4354;DHT22;11018;51.258;6.806;2022-07-29T15:38:30;31.10;2.90
4354;DHT22;11018;51.258;6.806;2022-07-29T15:40:56;30.20;2.70
4354;DHT22;11018;51.258;6.806;2022-07-29T15:43:22;29.50;4.90
4354;DHT22;11018;51.258;6.806;2022-07-29T15:45:48;29.80;4.30
4354;DHT22;11018;51.258;6.806;2022-07-29T15:48:32;29.80;4.20
4354;DHT22;11018;51.258;6.806;2022-07-29T15:51:01;29.80;3.70
4354;DHT22;11018;51.258;6.806;2022-07-29T15:53:26;30.10;3.40
4354;DHT22;11018;51.258;6.806;2022-07-29T15:55:54;30.50;3.60
4354;DHT22;11018;51.258;6.806;2022-07-29T15:58:19;29.90;3.50
4354;DHT22;11018;51.258;6.806;2022-07-29T16:00:45;29.20;4.70
4354;DHT22;11018;51.258;6.806;2022-07-29T16:03:11;28.50;4.30
4354;DHT22;11018;51.258;6.806;2022-07-29T16:05:37;28.80;3.90
4354;DHT22;11018;51.258;6.806;2022-07-29T16:08:03;29.70;3.60
4354;DHT22;11018;51.258;6.806;2022-07-29T16:10:28;29.50;2.30
4354;DHT22;11018;51.258;6.806;2022-07-29T16:12:54;29.20;2.50
4354;DHT22;11018;51.258;6.806;2022-07-29T16:15:19;29.20;2.80
4354;DHT22;11018;51.258;6.806;2022-07-29T16:17:45;29.10;3.00
4354;DHT22;11018;51.258;6.806;2022-07-29T16:20:11;29.90;1.00
4354;DHT22;11018;51.258;6.806;2022-07-29T16:22:36;29.40;1.70
4354;DHT22;11018;51.258;6.806;2022-07-29T16:25:02;28.90;2.70
4354;DHT22;11018;51.258;6.806;2022-07-29T16:27:28;28.40;2.90
4354;DHT22;11018;51.258;6.806;2022-07-29T16:29:54;28.40;3.10
4354;DHT22;11018;51.258;6.806;2022-07-29T16:32:20;28.90;2.80